sensor_id;sensor_type;location;lat;lon;timestamp;pressure;altitude;pressure_sealevel;temperature;humidity
30516;BME280;17297;54.022;10.760;2022-10-16T00:01:22;100805.81;;;17.57;69.36
30516;BME280;17297;54.022;10.760;2022-10-16T00:03:49;100797.88;;;17.55;69.32
30516;BME280;17297;54.022;10.760;2022-10-16T00:06:16;100799.19;;;17.53;69.25
30516;BME280;17297;54.022;10.760;2022-10-16T00:08:43;100808.41;;;17.52;69.18
30516;BME280;17297;54.022;10.760;2022-10-16T00:11:11;100804.28;;;17.49;69.29
30516;BME280;17297;54.022;10.760;2022-10-16T00:13:39;100807.00;;;17.49;69.24
30516;BME280;17297;54.022;10.760;2022-10-16T00:16:06;100808.06;;;17.48;69.17
30516;BME280;17297;54.022;10.760;2022-10-16T00:18:32;100805.56;;;17.47;69.34
30516;BME280;17297;54.022;10.760;2022-10-16T00:21:05;100807.47;;;17.46;69.37
30516;BME280;17297;54.022;10.760;2022-10-16T00:23:31;100811.81;;;17.47;69.54
30516;BME280;17297;54.022;10.760;2022-10-16T00:25:59;100818.34;;;17.46;69.52
30516;BME280;17297;54.022;10.760;2022-10-16T00:28:24;100822.13;;;17.45;69.17
30516;BME280;17297;54.022;10.760;2022-10-16T00:30:50;100829.47;;;17.45;69.16
30516;BME280;17297;54.022;10.760;2022-10-16T00:33:15;100834.91;;;17.45;69.17
30516;BME280;17297;54.022;10.760;2022-10-16T00:35:41;100843.88;;;17.45;69.22
30516;BME280;17297;54.022;10.760;2022-10-16T00:38:08;100828.63;;;17.44;69.23
30516;BME280;17297;54.022;10.760;2022-10-16T00:40:33;100834.06;;;17.44;69.47
30516;BME280;17297;54.022;10.760;2022-10-16T00:42:58;100832.41;;;17.43;69.50
30516;BME280;17297;54.022;10.760;2022-10-16T00:45:24;100837.03;;;17.43;69.53
30516;BME280;17297;54.022;10.760;2022-10-16T00:47:51;100845.19;;;17.43;69.46
30516;BME280;17297;54.022;10.760;2022-10-16T00:50:29;100838.09;;;17.42;69.39
30516;BME280;17297;54.022;10.760;2022-10-16T00:52:56;100831.81;;;17.41;69.40
30516;BME280;17297;54.022;10.760;2022-10-16T00:55:23;100832.06;;;17.40;69.45
30516;BME280;17297;54.022;10.760;2022-10-16T00:57:49;100831.25;;;17.39;69.52
30516;BME280;17297;54.022;10.760;2022-10-16T01:00:19;100835.00;;;17.38;69.23
30516;BME280;17297;54.022;10.760;2022-10-16T01:02:54;100841.28;;;17.39;69.51
30516;BME280;17297;54.022;10.760;2022-10-16T01:05:21;100844.09;;;17.44;69.13
30516;BME280;17297;54.022;10.760;2022-10-16T01:08:12;100840.69;;;17.37;69.29
30516;BME280;17297;54.022;10.760;2022-10-16T01:10:48;100842.59;;;17.36;69.44
30516;BME280;17297;54.022;10.760;2022-10-16T01:13:24;100849.06;;;17.35;69.39
30516;BME280;17297;54.022;10.760;2022-10-16T01:15:56;100854.50;;;17.35;69.39
30516;BME280;17297;54.022;10.760;2022-10-16T01:21:08;100858.28;;;17.34;69.21
30516;BME280;17297;54.022;10.760;2022-10-16T01:26:37;100855.22;;;17.30;69.44
30516;BME280;17297;54.022;10.760;2022-10-16T01:29:16;100857.13;;;17.30;69.06
30516;BME280;17297;54.022;10.760;2022-10-16T01:31:47;100858.19;;;17.29;69.27
30516;BME280;17297;54.022;10.760;2022-10-16T01:34:17;100853.78;;;17.28;69.28
30516;BME280;17297;54.022;10.760;2022-10-16T01:36:51;100860.53;;;17.25;69.48
30516;BME280;17297;54.022;10.760;2022-10-16T01:39:21;100854.03;;;17.26;69.19
30516;BME280;17297;54.022;10.760;2022-10-16T01:41:53;100860.53;;;17.25;69.06
30516;BME280;17297;54.022;10.760;2022-10-16T01:44:22;100861.84;;;17.23;69.02
30516;BME280;17297;54.022;10.760;2022-10-16T01:46:51;100858.06;;;17.24;69.21
30516;BME280;17297;54.022;10.760;2022-10-16T01:49:20;100862.88;;;17.22;69.13
30516;BME280;17297;54.022;10.760;2022-10-16T01:51:49;100860.41;;;17.20;69.18
30516;BME280;17297;54.022;10.760;2022-10-16T01:54:18;100864.19;;;17.19;69.15
30516;BME280;17297;54.022;10.760;2022-10-16T01:56:45;100875.91;;;17.20;69.19
30516;BME280;17297;54.022;10.760;2022-10-16T01:59:16;100863.34;;;17.19;69.16
30516;BME280;17297;54.022;10.760;2022-10-16T02:01:47;100872.34;;;17.19;69.44
30516;BME280;17297;54.022;10.760;2022-10-16T02:06:46;100866.53;;;17.16;68.93
30516;BME280;17297;54.022;10.760;2022-10-16T02:09:11;100865.72;;;17.15;69.04
30516;BME280;17297;54.022;10.760;2022-10-16T02:11:37;100865.97;;;17.14;69.15
30516;BME280;17297;54.022;10.760;2022-10-16T02:14:05;100863.47;;;17.12;69.10
30516;BME280;17297;54.022;10.760;2022-10-16T02:16:37;100862.84;;;17.10;69.22
30516;BME280;17297;54.022;10.760;2022-10-16T02:19:03;100860.13;;;17.10;69.27
30516;BME280;17297;54.022;10.760;2022-10-16T02:21:34;100858.50;;;17.09;69.21
30516;BME280;17297;54.022;10.760;2022-10-16T02:27:13;100867.94;;;17.06;69.29
30516;BME280;17297;54.022;10.760;2022-10-16T02:29:43;100861.69;;;17.06;69.16
30516;BME280;17297;54.022;10.760;2022-10-16T02:32:15;100859.22;;;17.04;69.02
30516;BME280;17297;54.022;10.760;2022-10-16T02:34:43;100863.22;;;17.02;69.26
30516;BME280;17297;54.022;10.760;2022-10-16T02:37:10;100858.59;;;17.02;69.14
30516;BME280;17297;54.022;10.760;2022-10-16T02:39:36;100865.09;;;17.01;69.12
30516;BME280;17297;54.022;10.760;2022-10-16T02:42:03;100864.03;;;17.02;69.27
30516;BME280;17297;54.022;10.760;2022-10-16T02:44:28;100858.84;;;17.01;69.10
30516;BME280;17297;54.022;10.760;2022-10-16T02:46:55;100851.75;;;17.00;69.00
30516;BME280;17297;54.022;10.760;2022-10-16T02:49:20;100857.16;;;17.00;69.08
30516;BME280;17297;54.022;10.760;2022-10-16T02:51:45;100863.69;;;16.99;69.20
30516;BME280;17297;54.022;10.760;2022-10-16T02:54:11;100863.69;;;16.99;69.13
30516;BME280;17297;54.022;10.760;2022-10-16T02:56:36;100868.28;;;16.98;69.03
30516;BME280;17297;54.022;10.760;2022-10-16T02:59:01;100877.25;;;16.99;69.12
30516;BME280;17297;54.022;10.760;2022-10-16T03:01:27;100864.97;;;16.96;69.08
30516;BME280;17297;54.022;10.760;2022-10-16T03:03:52;100861.66;;;16.94;69.04
30516;BME280;17297;54.022;10.760;2022-10-16T03:06:17;100862.72;;;16.93;68.90
30516;BME280;17297;54.022;10.760;2022-10-16T03:08:43;100868.16;;;16.93;69.09
30516;BME280;17297;54.022;10.760;2022-10-16T03:11:08;100868.41;;;16.92;68.88
30516;BME280;17297;54.022;10.760;2022-10-16T03:13:33;100870.25;;;16.91;68.68
30516;BME280;17297;54.022;10.760;2022-10-16T03:15:59;100865.91;;;16.90;68.94
30516;BME280;17297;54.022;10.760;2022-10-16T03:18:24;100861.53;;;16.89;68.87
30516;BME280;17297;54.022;10.760;2022-10-16T03:20:50;100858.81;;;16.89;68.89
30516;BME280;17297;54.022;10.760;2022-10-16T03:23:15;100861.75;;;16.88;68.91
30516;BME280;17297;54.022;10.760;2022-10-16T03:25:40;100867.44;;;16.86;68.83
30516;BME280;17297;54.022;10.760;2022-10-16T03:28:06;100864.09;;;16.84;68.72
30516;BME280;17297;54.022;10.760;2022-10-16T03:30:31;100867.88;;;16.83;68.97
30516;BME280;17297;54.022;10.760;2022-10-16T03:32:57;100865.38;;;16.81;68.93
30516;BME280;17297;54.022;10.760;2022-10-16T03:35:23;100865.84;;;16.78;68.74
30516;BME280;17297;54.022;10.760;2022-10-16T03:37:49;100863.38;;;16.77;68.70
30516;BME280;17297;54.022;10.760;2022-10-16T03:40:15;100869.03;;;16.75;68.67
30516;BME280;17297;54.022;10.760;2022-10-16T03:42:42;100866.53;;;16.74;68.74
30516;BME280;17297;54.022;10.760;2022-10-16T03:45:09;100861.56;;;16.71;68.70
30516;BME280;17297;54.022;10.760;2022-10-16T03:47:34;100870.75;;;16.70;68.59
30516;BME280;17297;54.022;10.760;2022-10-16T03:50:00;100859.28;;;16.68;68.65
30516;BME280;17297;54.022;10.760;2022-10-16T03:52:25;100864.13;;;16.66;68.40
30516;BME280;17297;54.022;10.760;2022-10-16T03:54:51;100868.13;;;16.63;68.52
30516;BME280;17297;54.022;10.760;2022-10-16T03:57:16;100866.47;;;16.62;68.76
30516;BME280;17297;54.022;10.760;2022-10-16T03:59:42;100864.59;;;16.62;68.72
30516;BME280;17297;54.022;10.760;2022-10-16T04:02:07;100878.41;;;16.61;68.44
30516;BME280;17297;54.022;10.760;2022-10-16T04:04:32;100874.88;;;16.60;68.73
30516;BME280;17297;54.022;10.760;2022-10-16T04:06:58;100884.06;;;16.59;68.50
30516;BME280;17297;54.022;10.760;2022-10-16T04:09:23;100894.91;;;16.59;68.52
30516;BME280;17297;54.022;10.760;2022-10-16T04:11:48;100889.72;;;16.58;68.58
30516;BME280;17297;54.022;10.760;2022-10-16T04:14:14;100897.06;;;16.57;68.62
30516;BME280;17297;54.022;10.760;2022-10-16T04:16:39;100894.53;;;16.56;68.49
30516;BME280;17297;54.022;10.760;2022-10-16T04:19:05;100901.88;;;16.55;68.52
30516;BME280;17297;54.022;10.760;2022-10-16T04:21:30;100908.38;;;16.54;68.41
30516;BME280;17297;54.022;10.760;2022-10-16T04:23:55;100904.78;;;16.54;68.37
30516;BME280;17297;54.022;10.760;2022-10-16T04:26:21;100908.59;;;16.53;68.36
30516;BME280;17297;54.022;10.760;2022-10-16T04:28:46;100913.41;;;16.51;68.32
30516;BME280;17297;54.022;10.760;2022-10-16T04:31:11;100910.69;;;16.51;68.40
30516;BME280;17297;54.022;10.760;2022-10-16T04:33:37;100914.25;;;16.51;68.36
30516;BME280;17297;54.022;10.760;2022-10-16T04:36:02;100922.41;;;16.51;68.29
30516;BME280;17297;54.022;10.760;2022-10-16T04:38:28;100912.81;;;16.49;68.31
30516;BME280;17297;54.022;10.760;2022-10-16T04:40:54;100922.84;;;16.48;68.31
30516;BME280;17297;54.022;10.760;2022-10-16T04:43:19;100928.28;;;16.48;68.30
30516;BME280;17297;54.022;10.760;2022-10-16T04:45:45;100925.78;;;16.47;68.36
30516;BME280;17297;54.022;10.760;2022-10-16T04:48:10;100923.31;;;16.45;68.24
30516;BME280;17297;54.022;10.760;2022-10-16T04:50:36;100928.75;;;16.45;68.24
30516;BME280;17297;54.022;10.760;2022-10-16T04:53:05;100927.06;;;16.44;68.03
30516;BME280;17297;54.022;10.760;2022-10-16T04:55:30;100934.63;;;16.42;68.00
30516;BME280;17297;54.022;10.760;2022-10-16T04:57:56;100929.19;;;16.42;68.18
30516;BME280;17297;54.022;10.760;2022-10-16T05:00:21;100937.34;;;16.42;68.07
30516;BME280;17297;54.022;10.760;2022-10-16T05:02:50;100933.78;;;16.42;68.08
30516;BME280;17297;54.022;10.760;2022-10-16T05:05:16;100934.00;;;16.40;68.24
30516;BME280;17297;54.022;10.760;2022-10-16T05:07:41;100941.34;;;16.39;67.92
30516;BME280;17297;54.022;10.760;2022-10-16T05:10:07;100952.19;;;16.39;67.97
30516;BME280;17297;54.022;10.760;2022-10-16T05:12:32;100956.19;;;16.37;67.98
30516;BME280;17297;54.022;10.760;2022-10-16T05:14:59;100956.44;;;16.35;67.99
30516;BME280;17297;54.022;10.760;2022-10-16T05:17:25;100955.56;;;16.35;68.04
30516;BME280;17297;54.022;10.760;2022-10-16T05:19:50;100960.19;;;16.34;67.84
30516;BME280;17297;54.022;10.760;2022-10-16T05:22:16;100963.97;;;16.33;67.99
30516;BME280;17297;54.022;10.760;2022-10-16T05:24:41;100959.59;;;16.32;67.89
30516;BME280;17297;54.022;10.760;2022-10-16T05:27:07;100949.78;;;16.31;68.01
30516;BME280;17297;54.022;10.760;2022-10-16T05:29:32;100955.19;;;16.31;67.88
30516;BME280;17297;54.022;10.760;2022-10-16T05:31:57;100956.25;;;16.30;67.85
30516;BME280;17297;54.022;10.760;2022-10-16T05:34:23;100965.47;;;16.29;67.83
30516;BME280;17297;54.022;10.760;2022-10-16T05:36:48;100963.78;;;16.28;67.69
30516;BME280;17297;54.022;10.760;2022-10-16T05:39:15;100967.78;;;16.26;67.77
30516;BME280;17297;54.022;10.760;2022-10-16T05:41:40;100972.38;;;16.25;67.87
30516;BME280;17297;54.022;10.760;2022-10-16T05:44:06;100977.81;;;16.25;67.75
30516;BME280;17297;54.022;10.760;2022-10-16T05:46:32;100975.53;;;16.22;67.78
30516;BME280;17297;54.022;10.760;2022-10-16T05:48:57;100982.88;;;16.22;67.88
30516;BME280;17297;54.022;10.760;2022-10-16T05:51:23;100984.75;;;16.21;67.83
30516;BME280;17297;54.022;10.760;2022-10-16T05:53:48;100987.69;;;16.20;67.68
30516;BME280;17297;54.022;10.760;2022-10-16T05:56:14;100988.75;;;16.19;67.79
30516;BME280;17297;54.022;10.760;2022-10-16T05:58:39;100995.22;;;16.17;67.94
30516;BME280;17297;54.022;10.760;2022-10-16T06:01:14;100993.78;;;16.15;67.86
30516;BME280;17297;54.022;10.760;2022-10-16T06:03:40;100995.69;;;16.14;67.71
30516;BME280;17297;54.022;10.760;2022-10-16T06:06:11;100994.84;;;16.14;67.83
30516;BME280;17297;54.022;10.760;2022-10-16T06:08:38;101008.19;;;16.15;67.61
30516;BME280;17297;54.022;10.760;2022-10-16T06:11:05;101005.72;;;16.14;67.86
30516;BME280;17297;54.022;10.760;2022-10-16T06:13:31;101001.09;;;16.14;67.77
30516;BME280;17297;54.022;10.760;2022-10-16T06:15:58;100995.44;;;16.16;67.89
30516;BME280;17297;54.022;10.760;2022-10-16T06:18:24;101006.28;;;16.16;67.57
30516;BME280;17297;54.022;10.760;2022-10-16T06:20:49;101005.25;;;16.17;67.73
30516;BME280;17297;54.022;10.760;2022-10-16T06:23:15;101010.44;;;16.19;67.65
30516;BME280;17297;54.022;10.760;2022-10-16T06:25:40;101006.69;;;16.20;67.69
30516;BME280;17297;54.022;10.760;2022-10-16T06:28:05;101014.59;;;16.21;67.62
30516;BME280;17297;54.022;10.760;2022-10-16T06:30:31;101015.44;;;16.22;67.50
30516;BME280;17297;54.022;10.760;2022-10-16T06:32:56;101016.88;;;16.24;67.59
30516;BME280;17297;54.022;10.760;2022-10-16T06:35:22;101027.50;;;16.26;67.52
30516;BME280;17297;54.022;10.760;2022-10-16T06:37:47;101023.31;;;16.30;67.76
30516;BME280;17297;54.022;10.760;2022-10-16T06:40:13;101016.97;;;16.36;67.74
30516;BME280;17297;54.022;10.760;2022-10-16T06:42:39;101024.16;;;16.49;67.88
30516;BME280;17297;54.022;10.760;2022-10-16T06:45:05;101031.06;;;16.63;67.76
30516;BME280;17297;54.022;10.760;2022-10-16T06:47:31;101034.94;;;16.74;67.45
30516;BME280;17297;54.022;10.760;2022-10-16T06:49:56;101019.41;;;16.81;67.44
30516;BME280;17297;54.022;10.760;2022-10-16T06:52:21;101018.50;;;16.87;67.16
30516;BME280;17297;54.022;10.760;2022-10-16T06:54:47;101023.72;;;16.89;67.15
30516;BME280;17297;54.022;10.760;2022-10-16T06:57:12;101027.03;;;16.91;66.82
30516;BME280;17297;54.022;10.760;2022-10-16T06:59:37;101038.13;;;16.89;66.80
30516;BME280;17297;54.022;10.760;2022-10-16T07:02:03;101030.19;;;16.88;66.71
30516;BME280;17297;54.022;10.760;2022-10-16T07:04:28;101037.53;;;16.87;67.00
30516;BME280;17297;54.022;10.760;2022-10-16T07:06:53;101044.03;;;16.86;66.69
30516;BME280;17297;54.022;10.760;2022-10-16T07:09:19;101045.69;;;16.87;66.87
30516;BME280;17297;54.022;10.760;2022-10-16T07:11:44;101047.13;;;16.90;66.84
30516;BME280;17297;54.022;10.760;2022-10-16T07:14:16;101048.56;;;16.92;66.77
30516;BME280;17297;54.022;10.760;2022-10-16T07:16:42;101054.81;;;16.93;66.81
30516;BME280;17297;54.022;10.760;2022-10-16T07:19:08;101047.28;;;16.95;66.88
30516;BME280;17297;54.022;10.760;2022-10-16T07:21:34;101050.00;;;16.95;66.75
30516;BME280;17297;54.022;10.760;2022-10-16T07:24:01;101060.25;;;16.93;66.70
30516;BME280;17297;54.022;10.760;2022-10-16T07:26:28;101064.84;;;16.92;66.73
30516;BME280;17297;54.022;10.760;2022-10-16T07:28:55;101070.50;;;16.91;66.67
30516;BME280;17297;54.022;10.760;2022-10-16T07:31:21;101073.22;;;16.91;66.69
30516;BME280;17297;54.022;10.760;2022-10-16T07:33:48;101075.72;;;16.92;66.78
30516;BME280;17297;54.022;10.760;2022-10-16T07:36:15;101073.75;;;16.99;66.89
30516;BME280;17297;54.022;10.760;2022-10-16T07:38:40;101070.13;;;17.05;66.62
30516;BME280;17297;54.022;10.760;2022-10-16T07:41:13;101075.72;;;17.11;66.97
30516;BME280;17297;54.022;10.760;2022-10-16T07:43:39;101070.41;;;17.16;66.90
30516;BME280;17297;54.022;10.760;2022-10-16T07:46:05;101071.16;;;17.23;66.87
30516;BME280;17297;54.022;10.760;2022-10-16T07:48:32;101074.00;;;17.28;66.78
30516;BME280;17297;54.022;10.760;2022-10-16T07:51:00;101078.53;;;17.34;66.66
30516;BME280;17297;54.022;10.760;2022-10-16T07:53:26;101073.25;;;17.39;66.79
30516;BME280;17297;54.022;10.760;2022-10-16T07:55:52;101076.94;;;17.45;66.70
30516;BME280;17297;54.022;10.760;2022-10-16T07:58:17;101076.22;;;17.49;66.62
30516;BME280;17297;54.022;10.760;2022-10-16T08:00:43;101079.91;;;17.55;66.70
30516;BME280;17297;54.022;10.760;2022-10-16T08:03:08;101088.44;;;17.59;66.67
30516;BME280;17297;54.022;10.760;2022-10-16T08:05:34;101092.59;;;17.61;66.61
30516;BME280;17297;54.022;10.760;2022-10-16T08:08:02;101097.56;;;17.64;66.69
30516;BME280;17297;54.022;10.760;2022-10-16T08:10:28;101096.28;;;17.67;66.43
30516;BME280;17297;54.022;10.760;2022-10-16T08:12:54;101086.00;;;17.69;66.72
30516;BME280;17297;54.022;10.760;2022-10-16T08:15:19;101092.66;;;17.73;66.68
30516;BME280;17297;54.022;10.760;2022-10-16T08:17:57;101086.97;;;17.74;66.53
30516;BME280;17297;54.022;10.760;2022-10-16T08:20:23;101087.34;;;17.78;66.65
30516;BME280;17297;54.022;10.760;2022-10-16T08:22:48;101087.56;;;17.76;66.33
30516;BME280;17297;54.022;10.760;2022-10-16T08:25:13;101091.16;;;17.77;66.48
30516;BME280;17297;54.022;10.760;2022-10-16T08:27:39;101090.28;;;17.76;66.61
30516;BME280;17297;54.022;10.760;2022-10-16T08:30:04;101091.75;;;17.79;66.48
30516;BME280;17297;54.022;10.760;2022-10-16T08:32:30;101098.84;;;17.80;66.41
30516;BME280;17297;54.022;10.760;2022-10-16T08:34:55;101095.88;;;17.82;66.42
30516;BME280;17297;54.022;10.760;2022-10-16T08:37:20;101094.84;;;17.83;66.46
30516;BME280;17297;54.022;10.760;2022-10-16T08:39:46;101096.25;;;17.85;66.54
30516;BME280;17297;54.022;10.760;2022-10-16T08:50:37;101111.66;;;17.91;66.36
30516;BME280;17297;54.022;10.760;2022-10-16T08:53:04;101105.16;;;17.92;66.27
30516;BME280;17297;54.022;10.760;2022-10-16T08:55:50;101110.34;;;17.94;66.52
30516;BME280;17297;54.022;10.760;2022-10-16T08:58:22;101121.63;;;17.97;66.42
30516;BME280;17297;54.022;10.760;2022-10-16T09:00:55;101115.94;;;17.99;66.43
30516;BME280;17297;54.022;10.760;2022-10-16T09:06:50;101121.72;;;18.03;66.57
30516;BME280;17297;54.022;10.760;2022-10-16T09:09:32;101124.81;;;18.06;66.32
30516;BME280;17297;54.022;10.760;2022-10-16T09:12:09;101115.59;;;18.07;66.44
30516;BME280;17297;54.022;10.760;2022-10-16T09:14:40;101121.63;;;18.09;66.39
30516;BME280;17297;54.022;10.760;2022-10-16T09:17:38;101128.50;;;18.12;66.25
30516;BME280;17297;54.022;10.760;2022-10-16T09:20:29;101128.03;;;18.15;66.40
30516;BME280;17297;54.022;10.760;2022-10-16T09:25:31;101129.22;;;18.19;66.34
30516;BME280;17297;54.022;10.760;2022-10-16T09:27:58;101125.19;;;18.21;66.16
30516;BME280;17297;54.022;10.760;2022-10-16T09:30:27;101123.91;;;18.24;66.14
30516;BME280;17297;54.022;10.760;2022-10-16T09:32:54;101119.88;;;18.27;66.37
30516;BME280;17297;54.022;10.760;2022-10-16T09:35:48;101120.50;;;18.29;66.00
30516;BME280;17297;54.022;10.760;2022-10-16T09:38:27;101125.22;;;18.33;66.47
30516;BME280;17297;54.022;10.760;2022-10-16T09:40:55;101123.09;;;18.35;66.10
30516;BME280;17297;54.022;10.760;2022-10-16T09:46:07;101131.16;;;18.42;66.23
30516;BME280;17297;54.022;10.760;2022-10-16T09:48:39;101134.22;;;18.45;66.18
30516;BME280;17297;54.022;10.760;2022-10-16T09:51:19;101122.63;;;18.50;66.32
30516;BME280;17297;54.022;10.760;2022-10-16T09:53:46;101134.72;;;18.54;65.99
30516;BME280;17297;54.022;10.760;2022-10-16T09:56:24;101128.78;;;18.57;66.27
30516;BME280;17297;54.022;10.760;2022-10-16T09:58:52;101129.75;;;18.63;65.91
30516;BME280;17297;54.022;10.760;2022-10-16T10:01:18;101130.91;;;18.67;65.94
30516;BME280;17297;54.022;10.760;2022-10-16T10:03:44;101123.91;;;18.71;65.89
30516;BME280;17297;54.022;10.760;2022-10-16T10:06:18;101142.34;;;18.76;65.76
30516;BME280;17297;54.022;10.760;2022-10-16T10:08:55;101147.31;;;18.79;65.70
30516;BME280;17297;54.022;10.760;2022-10-16T10:11:47;101164.00;;;18.82;65.91
30516;BME280;17297;54.022;10.760;2022-10-16T10:19:29;101177.84;;;18.92;65.43
30516;BME280;17297;54.022;10.760;2022-10-16T10:21:55;101168.38;;;18.95;65.22
30516;BME280;17297;54.022;10.760;2022-10-16T10:24:20;101176.91;;;18.99;65.43
30516;BME280;17297;54.022;10.760;2022-10-16T10:27:10;101169.91;;;19.03;65.18
30516;BME280;17297;54.022;10.760;2022-10-16T10:29:53;101170.50;;;19.05;65.41
30516;BME280;17297;54.022;10.760;2022-10-16T10:32:35;101172.50;;;19.09;65.23
30516;BME280;17297;54.022;10.760;2022-10-16T10:35:22;101170.38;;;19.11;65.23
30516;BME280;17297;54.022;10.760;2022-10-16T10:37:57;101176.16;;;19.15;64.98
30516;BME280;17297;54.022;10.760;2022-10-16T10:43:18;101195.38;;;19.20;64.39
30516;BME280;17297;54.022;10.760;2022-10-16T10:45:47;101188.84;;;19.21;64.41
30516;BME280;17297;54.022;10.760;2022-10-16T10:53:46;101187.66;;;19.29;63.97
30516;BME280;17297;54.022;10.760;2022-10-16T10:56:56;101186.34;;;19.31;64.02
30516;BME280;17297;54.022;10.760;2022-10-16T10:59:49;101199.75;;;19.33;64.15
30516;BME280;17297;54.022;10.760;2022-10-16T11:02:39;101188.56;;;19.34;63.96
30516;BME280;17297;54.022;10.760;2022-10-16T11:05:26;101198.44;;;19.35;63.86
30516;BME280;17297;54.022;10.760;2022-10-16T11:07:58;101195.47;;;19.37;63.52
30516;BME280;17297;54.022;10.760;2022-10-16T11:10:45;101190.81;;;19.37;63.72
30516;BME280;17297;54.022;10.760;2022-10-16T11:13:23;101196.88;;;19.39;63.43
30516;BME280;17297;54.022;10.760;2022-10-16T11:15:54;101200.44;;;19.40;63.01
30516;BME280;17297;54.022;10.760;2022-10-16T11:18:35;101200.22;;;19.42;62.98
30516;BME280;17297;54.022;10.760;2022-10-16T11:21:08;101201.84;;;19.43;62.85
30516;BME280;17297;54.022;10.760;2022-10-16T11:23:43;101208.72;;;19.45;62.97
30516;BME280;17297;54.022;10.760;2022-10-16T11:26:14;101209.91;;;19.49;62.57
30516;BME280;17297;54.022;10.760;2022-10-16T11:28:53;101208.84;;;19.50;62.54
30516;BME280;17297;54.022;10.760;2022-10-16T11:34:32;101212.97;;;19.53;62.29
30516;BME280;17297;54.022;10.760;2022-10-16T11:37:17;101218.19;;;19.54;62.14
30516;BME280;17297;54.022;10.760;2022-10-16T11:39:44;101219.28;;;19.53;61.97
30516;BME280;17297;54.022;10.760;2022-10-16T11:42:22;101211.66;;;19.55;62.30
30516;BME280;17297;54.022;10.760;2022-10-16T11:44:59;101230.53;;;19.57;61.83
30516;BME280;17297;54.022;10.760;2022-10-16T11:47:27;101230.88;;;19.60;61.97
30516;BME280;17297;54.022;10.760;2022-10-16T11:50:23;101231.72;;;19.61;61.71
30516;BME280;17297;54.022;10.760;2022-10-16T11:53:04;101228.16;;;19.60;61.89
30516;BME280;17297;54.022;10.760;2022-10-16T11:55:38;101235.50;;;19.60;61.23
30516;BME280;17297;54.022;10.760;2022-10-16T11:58:14;101245.22;;;19.56;61.33
30516;BME280;17297;54.022;10.760;2022-10-16T12:01:17;101246.56;;;19.53;61.13
30516;BME280;17297;54.022;10.760;2022-10-16T12:03:44;101247.63;;;19.52;60.87
30516;BME280;17297;54.022;10.760;2022-10-16T12:08:55;101265.91;;;19.52;60.85
30516;BME280;17297;54.022;10.760;2022-10-16T12:13:52;101277.28;;;19.49;60.80
30516;BME280;17297;54.022;10.760;2022-10-16T12:16:28;101281.09;;;19.48;60.76
30516;BME280;17297;54.022;10.760;2022-10-16T12:19:13;101290.31;;;19.47;60.94
30516;BME280;17297;54.022;10.760;2022-10-16T12:21:39;101285.34;;;19.44;60.97
30516;BME280;17297;54.022;10.760;2022-10-16T12:24:06;101294.00;;;19.41;60.85
30516;BME280;17297;54.022;10.760;2022-10-16T12:26:36;101292.34;;;19.39;60.81
30516;BME280;17297;54.022;10.760;2022-10-16T12:29:35;101301.00;;;19.36;61.00
30516;BME280;17297;54.022;10.760;2022-10-16T12:32:04;101301.00;;;19.36;60.60
30516;BME280;17297;54.022;10.760;2022-10-16T12:34:37;101306.25;;;19.38;60.91
30516;BME280;17297;54.022;10.760;2022-10-16T12:37:33;101315.25;;;19.38;60.90
30516;BME280;17297;54.022;10.760;2022-10-16T12:39:59;101317.16;;;19.38;60.84
30516;BME280;17297;54.022;10.760;2022-10-16T12:42:36;101323.66;;;19.37;60.90
30516;BME280;17297;54.022;10.760;2022-10-16T12:45:22;101324.50;;;19.37;61.06
30516;BME280;17297;54.022;10.760;2022-10-16T12:47:51;101316.44;;;19.43;61.04
30516;BME280;17297;54.022;10.760;2022-10-16T12:50:26;101320.34;;;19.47;60.99
30516;BME280;17297;54.022;10.760;2022-10-16T12:52:51;101319.16;;;19.54;61.38
30516;BME280;17297;54.022;10.760;2022-10-16T12:55:19;101322.13;;;19.53;60.88
30516;BME280;17297;54.022;10.760;2022-10-16T12:58:06;101326.53;;;19.54;61.06
30516;BME280;17297;54.022;10.760;2022-10-16T13:06:08;101328.53;;;19.58;60.72
30516;BME280;17297;54.022;10.760;2022-10-16T13:12:06;101343.97;;;19.65;60.82
30516;BME280;17297;54.022;10.760;2022-10-16T13:15:05;101342.06;;;19.65;60.89
30516;BME280;17297;54.022;10.760;2022-10-16T13:23:42;101358.66;;;19.64;59.92
30516;BME280;17297;54.022;10.760;2022-10-16T13:26:41;101361.88;;;19.60;60.13
30516;BME280;17297;54.022;10.760;2022-10-16T13:29:10;101370.53;;;19.57;59.71
30516;BME280;17297;54.022;10.760;2022-10-16T13:31:38;101367.81;;;19.57;59.67
30516;BME280;17297;54.022;10.760;2022-10-16T13:34:05;101376.22;;;19.56;59.66
30516;BME280;17297;54.022;10.760;2022-10-16T13:36:42;101380.84;;;19.55;59.68
30516;BME280;17297;54.022;10.760;2022-10-16T13:39:29;101380.28;;;19.53;59.80
30516;BME280;17297;54.022;10.760;2022-10-16T13:42:11;101386.78;;;19.52;59.54
30516;BME280;17297;54.022;10.760;2022-10-16T13:44:48;101393.53;;;19.50;59.51
30516;BME280;17297;54.022;10.760;2022-10-16T13:49:41;101407.91;;;19.45;59.44
30516;BME280;17297;54.022;10.760;2022-10-16T13:52:17;101413.81;;;19.42;59.24
30516;BME280;17297;54.022;10.760;2022-10-16T13:54:42;101411.31;;;19.41;59.12
30516;BME280;17297;54.022;10.760;2022-10-16T13:57:08;101421.66;;;19.38;59.15
30516;BME280;17297;54.022;10.760;2022-10-16T13:59:35;101424.59;;;19.37;58.77
30516;BME280;17297;54.022;10.760;2022-10-16T14:02:08;101433.84;;;19.36;58.75